createdAt,value
2023-03-11T00:12:29.405Z,1.40
2023-03-11T00:32:29.455Z,1.70
2023-03-11T00:47:29.384Z,1.40
2023-03-11T00:52:29.437Z,1.40
2023-03-11T00:57:29.415Z,1.50
2023-03-11T01:02:29.390Z,1.50
2023-03-11T01:12:29.418Z,1.30
2023-03-11T01:17:29.390Z,1.30
2023-03-11T01:22:29.382Z,1.30
2023-03-11T01:27:29.402Z,1.20
2023-03-11T01:37:29.400Z,1.20
2023-03-11T01:42:29.409Z,1.00
2023-03-11T01:47:29.404Z,1.00
2023-03-11T01:57:29.402Z,1.10
2023-03-11T02:22:29.394Z,1.50
2023-03-11T02:37:29.402Z,1.10
2023-03-11T02:42:29.414Z,1.50
2023-03-11T02:52:29.409Z,1.50
2023-03-11T03:07:29.401Z,1.10
2023-03-11T03:12:29.434Z,1.40
2023-03-11T03:17:29.505Z,1.40
2023-03-11T03:22:29.460Z,1.40
2023-03-11T03:27:29.424Z,1.00
2023-03-11T03:32:29.476Z,1.00
2023-03-11T03:37:29.422Z,1.00
2023-03-11T03:42:29.420Z,1.00
2023-03-11T03:47:29.441Z,1.00
2023-03-11T03:52:29.397Z,1.00
2023-03-11T04:07:29.413Z,1.20
2023-03-11T04:12:29.410Z,1.20
2023-03-11T04:22:29.423Z,1.20
2023-03-11T04:27:29.439Z,1.10
2023-03-11T04:32:29.464Z,1.10
2023-03-11T04:37:29.460Z,1.40
2023-03-11T04:52:29.425Z,1.10
2023-03-11T05:07:29.446Z,1.00
2023-03-11T05:12:29.443Z,1.00
2023-03-11T05:22:29.451Z,0.90
2023-03-11T05:32:29.442Z,0.90
2023-03-11T05:42:29.451Z,0.90
2023-03-11T05:52:29.463Z,1.60
2023-03-11T06:02:29.464Z,1.60
2023-03-11T06:07:29.460Z,1.00
2023-03-11T06:12:29.439Z,1.00
2023-03-11T06:17:30.545Z,1.00
2023-03-11T06:22:29.472Z,1.10
2023-03-11T06:37:29.439Z,0.80
2023-03-11T06:42:29.460Z,0.80
2023-03-11T06:52:29.463Z,1.10
2023-03-11T07:02:29.453Z,1.10
2023-03-11T07:17:29.436Z,1.50
2023-03-11T07:27:29.481Z,1.60
2023-03-11T07:32:29.524Z,1.60
2023-03-11T07:37:29.451Z,1.10
2023-03-11T07:47:29.472Z,1.10
2023-03-11T08:02:29.564Z,1.40
2023-03-11T08:07:29.450Z,1.00
2023-03-11T08:17:29.477Z,1.00
2023-03-11T08:22:29.454Z,1.30
2023-03-11T08:27:29.481Z,1.30
2023-03-11T08:32:29.497Z,1.30
2023-03-11T08:37:29.444Z,1.50
2023-03-11T08:42:29.454Z,1.50
2023-03-11T08:47:29.490Z,1.50
2023-03-11T08:52:29.454Z,1.10
2023-03-11T08:57:29.483Z,1.10
2023-03-11T09:02:29.552Z,1.10
2023-03-11T09:07:29.472Z,1.50
2023-03-11T09:12:29.504Z,1.50
2023-03-11T09:17:29.485Z,1.50
2023-03-11T09:22:29.481Z,1.30
2023-03-11T09:27:29.487Z,1.30
2023-03-11T09:32:29.529Z,1.30
2023-03-11T09:37:29.483Z,1.80
2023-03-11T09:42:29.500Z,1.80
2023-03-11T09:47:29.503Z,1.80
2023-03-11T09:52:29.502Z,1.50
2023-03-11T09:57:29.492Z,1.50
2023-03-11T10:02:29.604Z,1.50
2023-03-11T10:07:29.482Z,0.90
2023-03-11T10:12:29.488Z,0.90
2023-03-11T10:17:29.478Z,0.90
2023-03-11T10:22:29.509Z,0.70
2023-03-11T10:27:29.536Z,0.70
2023-03-11T10:32:29.556Z,0.70
2023-03-11T10:37:46.207Z,1.10
2023-03-11T10:42:29.527Z,1.10
2023-03-11T10:47:29.511Z,1.10
2023-03-11T10:52:29.504Z,0.90
2023-03-11T10:57:29.494Z,0.90
2023-03-11T11:02:29.499Z,0.90
2023-03-11T11:07:29.497Z,1.00
2023-03-11T11:12:29.523Z,1.00
2023-03-11T11:17:29.500Z,1.00
2023-03-11T11:22:29.509Z,0.90
2023-03-11T11:32:29.670Z,0.90
2023-03-11T11:37:29.501Z,0.90
2023-03-11T11:42:29.504Z,0.90
2023-03-11T11:52:29.484Z,0.80
2023-03-11T11:57:29.484Z,0.80
2023-03-11T12:02:29.560Z,0.80
2023-03-11T12:07:29.479Z,1.40
2023-03-11T12:12:29.490Z,1.40
2023-03-11T12:27:29.503Z,1.10
2023-03-11T12:32:29.620Z,1.10
2023-03-11T12:37:29.516Z,1.10
2023-03-11T12:42:29.514Z,1.10
2023-03-11T12:47:29.502Z,1.10
2023-03-11T12:52:29.487Z,1.30
2023-03-11T12:57:29.541Z,1.30
2023-03-11T13:02:29.645Z,1.30
2023-03-11T13:07:29.501Z,0.60
2023-03-11T13:12:29.530Z,0.60
2023-03-11T13:17:29.535Z,0.60
2023-03-11T13:22:29.505Z,1.30
2023-03-11T13:37:29.552Z,1.20
2023-03-11T13:42:29.533Z,1.20
2023-03-11T13:47:29.553Z,1.20
2023-03-11T13:52:29.540Z,1.00
2023-03-11T13:57:29.509Z,1.00
2023-03-11T14:02:29.547Z,1.00
2023-03-11T14:07:29.566Z,0.70
2023-03-11T14:12:29.534Z,0.70
2023-03-11T14:17:29.567Z,0.70
2023-03-11T14:22:29.537Z,0.90
2023-03-11T14:27:29.519Z,0.90
2023-03-11T14:32:29.574Z,0.90
2023-03-11T14:37:29.543Z,1.30
2023-03-11T14:42:29.530Z,1.30
2023-03-11T14:47:29.532Z,1.30
2023-03-11T14:52:29.532Z,0.80
2023-03-11T14:57:29.563Z,0.80
2023-03-11T15:02:29.549Z,0.80
2023-03-11T15:07:29.540Z,0.90
2023-03-11T15:17:37.335Z,0.90
2023-03-11T15:22:29.560Z,1.00
2023-03-11T15:27:29.544Z,1.00
2023-03-11T15:32:29.633Z,1.00
2023-03-11T15:37:29.572Z,1.30
2023-03-11T15:42:29.548Z,1.30
2023-03-11T15:47:29.568Z,1.30
2023-03-11T15:52:29.572Z,0.70
2023-03-11T15:57:29.554Z,0.70
2023-03-11T16:02:29.576Z,0.70
2023-03-11T16:07:39.162Z,0.90
2023-03-11T16:12:29.532Z,0.90
2023-03-11T16:17:42.938Z,0.90
2023-03-11T16:22:29.578Z,0.90
2023-03-11T16:32:29.593Z,0.90
2023-03-11T16:37:29.580Z,1.00
2023-03-11T16:47:29.558Z,1.00
2023-03-11T16:52:29.623Z,0.90
2023-03-11T16:57:29.576Z,0.90
2023-03-11T17:02:29.576Z,0.90
2023-03-11T17:07:29.589Z,1.10
2023-03-11T17:17:29.609Z,1.10
2023-03-11T17:22:29.630Z,1.30
2023-03-11T17:27:29.568Z,1.30
2023-03-11T17:32:29.623Z,1.30
2023-03-11T17:37:29.597Z,1.00
2023-03-11T17:47:29.610Z,1.00
2023-03-11T17:52:29.603Z,1.10
2023-03-11T17:57:30.309Z,1.10
2023-03-11T18:02:29.595Z,1.10
2023-03-11T18:07:29.599Z,1.30
2023-03-11T18:12:29.588Z,1.30
2023-03-11T18:17:29.597Z,1.30
2023-03-11T18:22:29.597Z,1.40
2023-03-11T18:37:29.612Z,1.80
2023-03-11T18:42:29.616Z,1.80
2023-03-11T18:47:29.591Z,1.80
2023-03-11T18:52:29.649Z,2.40
2023-03-11T18:57:29.588Z,2.40
2023-03-11T19:02:29.591Z,2.40
2023-03-11T19:12:29.612Z,2.90
2023-03-11T19:17:29.628Z,2.90
2023-03-11T19:22:29.626Z,2.90
2023-03-11T19:27:29.626Z,2.90
2023-03-11T19:32:29.618Z,2.90
2023-03-11T19:42:29.618Z,5.40
2023-03-11T19:47:29.594Z,5.40
2023-03-11T19:57:29.618Z,4.70
2023-03-11T20:02:29.733Z,4.70
2023-03-11T20:07:29.637Z,3.30
2023-03-11T20:12:29.610Z,3.30
2023-03-11T20:17:29.688Z,3.30
2023-03-11T20:22:29.629Z,4.10
2023-03-11T20:27:29.692Z,4.10
2023-03-11T20:32:29.643Z,4.10
2023-03-11T20:37:29.634Z,3.80
2023-03-11T20:42:29.724Z,3.80
2023-03-11T20:47:29.608Z,3.80
2023-03-11T20:52:29.675Z,3.50
2023-03-11T20:57:29.672Z,3.50
2023-03-11T21:02:29.777Z,3.50
2023-03-11T21:07:29.643Z,3.70
2023-03-11T21:17:29.728Z,3.70
2023-03-11T21:22:29.783Z,3.40
2023-03-11T21:27:29.778Z,3.40
2023-03-11T21:32:29.838Z,3.40
2023-03-11T21:37:29.740Z,3.50
2023-03-11T22:02:29.649Z,3.50
2023-03-11T22:07:29.676Z,3.50
2023-03-11T22:12:29.784Z,3.50
2023-03-11T22:37:29.641Z,4.60
2023-03-11T22:42:29.677Z,4.60
2023-03-11T22:47:29.661Z,4.60
2023-03-11T22:57:29.690Z,3.20
2023-03-11T23:07:29.646Z,3.10
2023-03-11T23:12:29.672Z,3.10
2023-03-11T23:17:29.685Z,3.10
2023-03-11T23:27:29.646Z,3.90
2023-03-11T23:37:29.678Z,3.80
2023-03-11T23:42:29.647Z,3.80
2023-03-11T23:47:29.676Z,3.80
2023-03-11T23:57:29.691Z,3.40
